Time;durP1;ratioP1;P1;durP2;ratioP2;P2;SDS_P1;SDS_P2;PMS_P1;PMS_P2;Temp;Humidity;BMP_temperature;BMP_pressure;BME280_temperature;BME280_humidity;BME280_pressure;Samples;Min_cycle;Max_cycle;Signal;HPM_P1;HPM_P2
2022/05/21 00:02:18;;;;;;;3.02;1.80;;;;;;;18.12;75.47;98169.45;1718381;82;25490;-59
2022/05/21 00:04:43;;;;;;;3.45;1.60;;;;;;;18.11;75.76;98160.94;1681158;85;25775;-59
2022/05/21 00:07:13;;;;;;;4.97;1.72;;;;;;;18.11;75.26;98154.00;1681280;85;25874;-58
2022/05/21 00:09:39;;;;;;;4.35;3.00;;;;;;;18.10;75.95;98137.71;1680905;85;27646;-58
2022/05/21 00:12:08;;;;;;;7.42;2.67;;;;;;;18.10;75.78;98132.17;1680821;84;25513;-58
2022/05/21 00:14:34;;;;;;;3.62;1.95;;;;;;;18.08;76.63;98128.39;1662020;85;25526;-59
2022/05/21 00:17:02;;;;;;;3.08;1.92;;;;;;;18.08;76.20;98125.61;1680928;85;26106;-59
2022/05/21 00:19:28;;;;;;;3.33;2.58;;;;;;;18.10;76.50;98121.86;1680925;85;25719;-59
2022/05/21 00:21:54;;;;;;;3.40;2.02;;;;;;;18.13;76.03;98131.44;1680858;85;27449;-57
2022/05/21 00:24:20;;;;;;;5.45;1.98;;;;;;;18.13;76.65;98134.22;1681113;85;25750;-57
2022/05/21 00:26:47;;;;;;;5.10;2.40;;;;;;;18.12;76.26;98129.25;1681241;85;25650;-56
2022/05/21 00:29:13;;;;;;;4.20;2.05;;;;;;;18.09;76.98;98129.97;1681053;85;26582;-56
2022/05/21 00:31:39;;;;;;;2.83;2.10;;;;;;;18.09;76.61;98131.94;1681170;85;25657;-57
2022/05/21 00:34:05;;;;;;;4.03;2.30;;;;;;;18.10;76.82;98132.95;1681242;84;28021;-57
2022/05/21 00:36:31;;;;;;;4.65;2.20;;;;;;;18.13;76.89;98137.77;1681192;85;25834;-57
2022/05/21 00:38:57;;;;;;;4.03;2.58;;;;;;;18.15;76.25;98135.42;1681090;85;25681;-57
2022/05/21 00:41:24;;;;;;;3.25;2.55;;;;;;;18.18;76.71;98142.18;1681205;85;25759;-57
2022/05/21 00:43:57;;;;;;;4.10;2.52;;;;;;;18.20;76.06;98148.73;1680871;84;25507;-56
2022/05/21 00:46:27;;;;;;;5.70;2.25;;;;;;;18.20;76.39;98152.31;1681132;85;28289;-60
2022/05/21 00:49:07;;;;;;;2.83;1.72;;;;;;;18.16;76.28;98155.03;1681382;85;25806;-60
2022/05/21 00:51:48;;;;;;;1.92;1.40;;;;;;;18.19;75.92;98157.63;1680935;85;25479;-60
2022/05/21 00:54:17;;;;;;;3.58;2.15;;;;;;;18.20;76.71;98158.44;1680872;85;25727;-57
2022/05/21 00:56:48;;;;;;;5.72;3.15;;;;;;;18.24;75.77;98157.89;1681050;85;25650;-58
2022/05/21 01:02:04;;;;;;;2.87;1.85;;;;;;;18.26;75.72;98166.06;1680817;85;25726;-58
2022/05/21 01:04:32;;;;;;;4.33;2.27;;;;;;;18.27;75.76;98171.00;1728630;83;25648;-58
2022/05/21 01:07:01;;;;;;;2.58;2.00;;;;;;;18.25;75.63;98174.16;1729349;82;25772;-56
2022/05/21 01:09:27;;;;;;;2.42;1.80;;;;;;;18.25;75.44;98178.31;1729223;82;25434;-57
2022/05/21 01:11:56;;;;;;;4.78;2.20;;;;;;;18.24;75.86;98167.02;1729251;83;27369;-57
2022/05/21 01:14:23;;;;;;;4.90;2.22;;;;;;;18.23;75.55;98152.95;1729274;82;25708;-57
2022/05/21 01:16:51;;;;;;;2.95;1.80;;;;;;;18.26;75.49;98161.09;1729563;83;25687;-57
2022/05/21 01:19:18;;;;;;;3.62;1.92;;;;;;;18.25;75.71;98167.22;1729314;82;26564;-59
2022/05/21 01:21:44;;;;;;;3.10;1.80;;;;;;;18.28;75.92;98167.07;1729290;82;25600;-59
2022/05/21 01:24:12;;;;;;;2.30;1.80;;;;;;;18.31;75.45;98167.09;1729466;82;27239;-58
2022/05/21 01:26:40;;;;;;;2.67;1.67;;;;;;;18.33;75.17;98165.33;1729267;83;25827;-60
2022/05/21 01:29:12;;;;;;;3.75;1.82;;;;;;;18.37;74.84;98170.35;1729423;83;25626;-59
2022/05/21 01:31:39;;;;;;;3.30;2.00;;;;;;;18.40;74.73;98164.02;1729117;82;25404;-59
2022/05/21 01:34:06;;;;;;;3.67;2.40;;;;;;;18.40;74.78;98168.78;1729466;82;25609;-58
2022/05/21 01:36:32;;;;;;;4.65;2.72;;;;;;;18.39;74.66;98169.97;1729464;82;27515;-58
2022/05/21 01:38:58;;;;;;;2.98;2.30;;;;;;;18.38;74.58;98178.06;1729538;83;25645;-60
2022/05/21 01:41:24;;;;;;;4.50;2.65;;;;;;;18.36;74.77;98174.28;1729362;83;25632;-58
2022/05/21 01:46:35;;;;;;;3.60;2.33;;;;;;;18.34;74.74;98156.43;1729110;83;25588;-57
2022/05/21 01:49:01;;;;;;;3.77;2.25;;;;;;;18.32;74.85;98149.87;1729163;83;27456;-57
2022/05/21 01:51:27;;;;;;;3.67;2.62;;;;;;;18.32;74.93;98154.03;1729329;82;25455;-57
2022/05/21 01:53:53;;;;;;;3.90;2.70;;;;;;;18.31;74.96;98153.23;1729411;83;25686;-57
2022/05/21 01:56:19;;;;;;;3.72;2.50;;;;;;;18.29;74.84;98161.72;1729505;82;25668;-57
2022/05/21 01:58:45;;;;;;;4.90;2.55;;;;;;;18.26;74.77;98155.55;1729465;83;25684;-57
2022/05/21 02:01:12;;;;;;;4.40;2.60;;;;;;;18.26;74.58;98163.87;1729415;83;28417;-56
2022/05/21 02:03:39;;;;;;;6.72;2.58;;;;;;;18.24;74.80;98164.82;1704015;83;26013;-57
2022/05/21 02:06:07;;;;;;;3.55;2.65;;;;;;;18.21;75.05;98168.34;1678949;85;25516;-57
2022/05/21 02:08:34;;;;;;;5.83;2.35;;;;;;;18.17;74.91;98163.56;1679272;85;26383;-59
2022/05/21 02:11:00;;;;;;;3.55;2.50;;;;;;;18.20;75.25;98153.70;1679071;85;25724;-59
2022/05/21 02:13:31;;;;;;;5.67;2.62;;;;;;;18.23;74.98;98167.39;1679360;85;27535;-60
2022/05/21 02:15:57;;;;;;;3.55;2.70;;;;;;;18.23;74.91;98166.01;1679216;85;25639;-60
2022/05/21 02:18:25;;;;;;;5.20;3.10;;;;;;;18.22;75.11;98173.52;1679259;85;25627;-60
2022/05/21 02:20:52;;;;;;;6.15;3.00;;;;;;;18.24;74.56;98169.79;1679415;84;25754;-58
2022/05/21 02:23:19;;;;;;;4.97;2.90;;;;;;;18.21;74.76;98173.31;1678978;84;25698;-60
2022/05/21 02:25:46;;;;;;;4.65;2.90;;;;;;;18.20;74.75;98164.80;1679426;84;27536;-58
2022/05/21 02:28:13;;;;;;;3.80;2.98;;;;;;;18.16;74.71;98175.83;1679358;85;25506;-61
2022/05/21 02:30:40;;;;;;;5.97;2.67;;;;;;;18.16;74.86;98177.80;1679218;84;25742;-60
2022/05/21 02:33:07;;;;;;;5.60;2.90;;;;;;;18.17;74.68;98187.13;1679210;84;26453;-60
2022/05/21 02:35:33;;;;;;;4.92;3.02;;;;;;;18.18;74.72;98172.11;1679207;85;25422;-60
2022/05/21 02:40:45;;;;;;;4.85;3.02;;;;;;;18.23;74.47;98181.26;1679152;85;25758;-59
2022/05/21 02:43:10;;;;;;;6.85;3.02;;;;;;;18.22;74.74;98178.28;1679545;85;25652;-57
2022/05/21 02:45:36;;;;;;;4.90;2.85;;;;;;;18.22;74.50;98177.67;1679300;85;25737;-58
2022/05/21 02:48:04;;;;;;;4.70;2.70;;;;;;;18.21;74.60;98173.89;1679292;85;25503;-58
2022/05/21 02:50:33;;;;;;;4.60;2.95;;;;;;;18.20;74.35;98183.41;1679153;85;27449;-57
2022/05/21 02:53:03;;;;;;;7.60;2.80;;;;;;;18.18;74.36;98174.88;1679091;85;25663;-57
2022/05/21 02:55:30;;;;;;;4.33;2.60;;;;;;;18.19;74.32;98170.11;1679146;85;35205;-57
2022/05/21 02:57:57;;;;;;;5.47;2.52;;;;;;;18.20;74.07;98167.57;1679339;84;25804;-57
2022/05/21 03:00:31;;;;;;;2.40;2.05;;;;;;;18.24;73.90;98177.30;1679381;84;25655;-57
2022/05/21 03:02:59;;;;;;;4.45;2.90;;;;;;;18.28;73.86;98168.45;1681310;82;27428;-57
2022/05/21 03:05:28;;;;;;;7.20;2.83;;;;;;;18.29;73.56;98170.05;1713700;83;25847;-57
2022/05/21 03:07:56;;;;;;;4.10;2.50;;;;;;;18.31;73.49;98172.64;1713820;83;25496;-57
2022/05/21 03:10:26;;;;;;;4.15;3.17;;;;;;;18.32;73.36;98169.29;1713564;83;25760;-57
2022/05/21 03:13:01;;;;;;;3.72;2.05;;;;;;;18.33;73.39;98174.26;1713975;83;25621;-57
2022/05/21 03:15:33;;;;;;;4.78;2.62;;;;;;;18.34;73.55;98171.69;1713847;83;27497;-57
2022/05/21 03:18:07;;;;;;;4.87;2.33;;;;;;;18.33;73.30;98172.27;1713580;83;25868;-57
2022/05/21 03:20:34;;;;;;;6.58;2.30;;;;;;;18.34;73.45;98171.69;1713439;83;25698;-57
2022/05/21 03:23:00;;;;;;;5.28;2.35;;;;;;;18.39;73.21;98172.14;1713774;83;26706;-57
2022/05/21 03:25:26;;;;;;;6.67;2.27;;;;;;;18.44;73.07;98162.69;1713800;83;25681;-57
2022/05/21 03:27:53;;;;;;;3.87;2.10;;;;;;;18.47;73.12;98159.15;1714081;83;27440;-57
2022/05/21 03:30:24;;;;;;;5.00;2.50;;;;;;;18.50;72.86;98154.23;1713898;83;25459;-56
2022/05/21 03:32:51;;;;;;;4.37;2.10;;;;;;;18.52;72.58;98154.66;1713803;83;25642;-58
2022/05/21 03:35:18;;;;;;;5.20;2.87;;;;;;;18.53;72.50;98158.21;1713752;83;26596;-61
2022/05/21 03:37:46;;;;;;;5.50;3.00;;;;;;;18.55;72.54;98156.67;1713847;83;25610;-60
2022/05/21 03:40:18;;;;;;;4.50;2.67;;;;;;;18.56;72.35;98150.52;1713517;83;27473;-59
2022/05/21 03:42:44;;;;;;;3.08;2.47;;;;;;;18.59;72.11;98157.30;1713494;83;25933;-59
2022/05/21 03:45:11;;;;;;;8.85;3.27;;;;;;;18.62;72.21;98160.70;1713522;83;25511;-61
2022/05/21 03:47:38;;;;;;;3.85;2.65;;;;;;;18.66;71.89;98160.14;1713413;83;25799;-57
2022/05/21 03:50:06;;;;;;;5.90;2.20;;;;;;;18.71;72.50;98162.56;1713824;83;25625;-59
2022/05/21 03:52:32;;;;;;;4.00;2.50;;;;;;;18.73;71.94;98163.56;1713930;83;27469;-56
2022/05/21 03:54:58;;;;;;;2.35;2.15;;;;;;;18.74;72.03;98171.52;1713769;83;25722;-57
2022/05/21 03:57:24;;;;;;;3.17;2.10;;;;;;;18.74;72.10;98166.57;1713880;83;25625;-57
2022/05/21 03:59:50;;;;;;;4.35;2.65;;;;;;;18.71;72.19;98173.66;1713806;83;26537;-57
2022/05/21 04:02:17;;;;;;;6.30;2.40;;;;;;;18.72;72.64;98167.53;1713759;83;25639;-58
2022/05/21 04:04:43;;;;;;;3.12;2.10;;;;;;;18.74;72.20;98177.67;1692322;83;27742;-57
2022/05/21 04:07:10;;;;;;;4.75;2.00;;;;;;;18.79;72.07;98173.14;1681040;85;25826;-57
2022/05/21 04:09:36;;;;;;;3.55;2.10;;;;;;;18.83;71.87;98178.16;1681278;84;25678;-60
2022/05/21 04:12:05;;;;;;;5.50;2.05;;;;;;;18.85;71.66;98174.39;1680848;85;25783;-59
2022/05/21 04:14:31;;;;;;;3.75;2.35;;;;;;;18.86;71.72;98176.02;1681109;85;25618;-61
2022/05/21 04:17:02;;;;;;;2.50;2.00;;;;;;;18.86;71.79;98180.17;1680891;84;27520;-58
2022/05/21 04:19:29;;;;;;;;;;;;;;;18.88;71.94;98182.57;1684240;85;25391;-58
2022/05/21 04:21:57;;;;;;;5.85;2.20;;;;;;;18.89;71.79;98184.97;1681098;85;25754;-58
2022/05/21 04:24:24;;;;;;;6.33;2.20;;;;;;;18.88;71.83;98197.23;1681131;85;25791;-59
2022/05/21 04:26:50;;;;;;;4.42;2.35;;;;;;;18.88;71.62;98197.84;1681193;85;25607;-57
2022/05/21 04:29:17;;;;;;;4.92;2.22;;;;;;;18.88;72.00;98197.84;1681309;85;27462;-57
2022/05/21 04:31:44;;;;;;;4.62;2.35;;;;;;;18.90;71.98;98205.98;1680886;85;25604;-58
2022/05/21 04:34:10;;;;;;;7.12;2.37;;;;;;;18.91;72.25;98212.34;1681147;85;25683;-58
2022/05/21 04:36:36;;;;;;;3.92;2.33;;;;;;;18.92;72.11;98214.74;1681145;85;25731;-57
2022/05/21 04:39:02;;;;;;;5.17;2.75;;;;;;;18.91;72.35;98229.78;1681322;85;25449;-57
2022/05/21 04:41:29;;;;;;;6.87;3.10;;;;;;;18.83;74.32;98241.20;1681143;84;27379;-56
2022/05/21 04:43:55;;;;;;;7.05;3.02;;;;;;;18.67;76.07;98251.92;1681101;84;25650;-57
2022/05/21 04:46:26;;;;;;;5.78;2.65;;;;;;;18.47;77.36;98274.86;1681402;84;25757;-57
2022/05/21 04:48:52;;;;;;;4.75;2.58;;;;;;;18.27;77.70;98259.17;1679019;85;25966;-59
2022/05/21 04:51:19;;;;;;;6.78;3.20;;;;;;;18.13;79.48;98268.09;1679511;85;25785;-58
2022/05/21 04:53:45;;;;;;;8.40;2.95;;;;;;;18.01;79.81;98276.02;1681244;85;27414;-59
2022/05/21 04:56:11;;;;;;;4.95;2.90;;;;;;;17.94;79.28;98279.47;1680839;84;25691;-59
2022/05/21 04:58:38;;;;;;;4.12;2.95;;;;;;;17.92;79.53;98279.64;1681043;85;25499;-60
2022/05/21 05:01:05;;;;;;;4.75;3.10;;;;;;;17.89;79.93;98277.03;1681332;85;26491;-60
2022/05/21 05:03:32;;;;;;;5.75;3.00;;;;;;;17.90;80.07;98272.27;1681457;83;25456;-61
2022/05/21 05:05:58;;;;;;;6.30;2.80;;;;;;;17.86;80.99;98269.47;1729194;83;27629;-61
2022/05/21 05:08:25;;;;;;;5.95;3.10;;;;;;;17.88;80.94;98265.71;1729394;83;25713;-62
2022/05/21 05:10:52;;;;;;;7.28;3.37;;;;;;;17.91;80.82;98269.73;1729473;82;25710;-62
2022/05/21 05:13:19;;;;;;;9.10;3.25;;;;;;;17.92;80.89;98275.48;1729410;83;26527;-61
2022/05/21 05:15:49;;;;;;;10.68;3.10;;;;;;;17.97;80.97;98275.75;1729335;83;25591;-58
2022/05/21 05:18:21;;;;;;;7.05;3.65;;;;;;;18.00;81.08;98277.20;1729224;83;27528;-61
2022/05/21 05:20:49;;;;;;;7.22;3.70;;;;;;;18.05;80.96;98269.15;1729172;82;25688;-59
2022/05/21 05:23:23;;;;;;;6.85;3.30;;;;;;;18.12;81.83;98272.05;1729466;82;25689;-60
2022/05/21 05:25:49;;;;;;;6.65;3.60;;;;;;;18.14;81.18;98279.98;1729390;83;25727;-60
2022/05/21 05:28:20;;;;;;;8.15;3.42;;;;;;;18.12;83.65;98286.48;1729460;83;25628;-60
2022/05/21 05:30:47;;;;;;;6.10;3.60;;;;;;;18.11;82.60;98282.94;1729537;82;27426;-58
2022/05/21 05:33:14;;;;;;;6.60;3.52;;;;;;;18.16;82.70;98288.14;1729328;82;25527;-57
2022/05/21 05:35:41;;;;;;;6.33;3.80;;;;;;;18.23;82.04;98286.64;1729324;82;25726;-57
2022/05/21 05:38:12;;;;;;;6.67;3.83;;;;;;;18.31;82.00;98287.75;1729337;82;25795;-57
2022/05/21 05:40:42;;;;;;;7.00;3.58;;;;;;;18.37;82.07;98289.62;1729456;82;25638;-57
2022/05/21 05:43:08;;;;;;;7.60;3.17;;;;;;;18.44;81.66;98300.00;1729548;82;27603;-57
2022/05/21 05:45:36;;;;;;;9.58;3.27;;;;;;;18.48;81.88;98299.45;1729196;82;25676;-57
2022/05/21 05:48:02;;;;;;;4.95;3.60;;;;;;;18.47;81.96;98300.64;1728980;82;25672;-57
2022/05/21 05:50:29;;;;;;;11.45;3.90;;;;;;;18.49;81.53;98307.20;1729288;82;26610;-57
2022/05/21 05:53:05;;;;;;;7.05;3.75;;;;;;;18.50;81.48;98308.79;1725315;83;26179;-57
2022/05/21 05:55:34;;;;;;;8.43;3.95;;;;;;;18.53;81.64;98310.23;1729363;82;27391;-57
2022/05/21 05:59:48;;;;;;;7.42;4.65;;;;;;;18.58;82.45;98313.27;1729417;83;25628;-57
2022/05/21 06:00:30;;;;;;;5.85;3.92;;;;;;;18.65;83.11;98313.97;1728403;82;25548;-57
2022/05/21 06:02:59;;;;;;;5.67;3.60;;;;;;;18.83;83.22;98323.09;1729301;83;26678;-58
2022/05/21 06:05:31;;;;;;;7.40;3.70;;;;;;;19.06;83.75;98314.03;1728941;83;25694;-57
2022/05/21 06:08:05;;;;;;;5.10;3.08;;;;;;;19.12;81.75;98323.45;1729133;82;27245;-57
2022/05/21 06:10:36;;;;;;;6.67;3.20;;;;;;;19.22;81.61;98323.34;1729336;82;25869;-57
2022/05/21 06:13:05;;;;;;;5.83;3.90;;;;;;;19.27;81.15;98330.77;1729356;82;25621;-57
2022/05/21 06:15:32;;;;;;;6.03;3.72;;;;;;;19.26;80.78;98339.47;1729372;82;26474;-57
2022/05/21 06:17:59;;;;;;;4.50;3.15;;;;;;;19.24;79.82;98333.48;1729129;82;25636;-57
2022/05/21 06:20:27;;;;;;;4.50;2.90;;;;;;;19.16;78.53;98333.42;1729054;83;27564;-57
2022/05/21 06:22:55;;;;;;;5.53;3.00;;;;;;;19.14;78.06;98336.38;1729296;83;25673;-60
2022/05/21 06:25:25;;;;;;;3.22;2.40;;;;;;;19.13;77.73;98345.87;1729151;82;25447;-57
2022/05/21 06:27:54;;;;;;;4.35;2.60;;;;;;;19.02;76.96;98347.91;1729380;83;26308;-58
2022/05/21 06:30:23;;;;;;;3.35;2.30;;;;;;;18.97;75.64;98349.63;1729401;83;25480;-60
2022/05/21 06:32:50;;;;;;;5.47;2.60;;;;;;;18.90;75.07;98357.29;1729674;82;28051;-59
2022/05/21 06:35:19;;;;;;;3.55;2.33;;;;;;;18.79;75.39;98365.48;1728992;83;25435;-60
2022/05/21 06:37:46;;;;;;;3.20;2.58;;;;;;;18.75;75.52;98372.16;1729421;82;25627;-57
2022/05/21 06:40:16;;;;;;;2.98;2.50;;;;;;;18.68;75.75;98370.07;1729089;83;25722;-58
2022/05/21 06:42:43;;;;;;;2.87;2.30;;;;;;;18.62;76.05;98374.38;1729563;83;25684;-60
2022/05/21 06:45:11;;;;;;;2.67;2.12;;;;;;;18.63;74.58;98387.88;1729002;83;29434;-58
2022/05/21 06:47:38;;;;;;;3.45;1.80;;;;;;;18.67;73.72;98401.79;1729166;82;25873;-58
2022/05/21 06:50:07;;;;;;;2.47;1.60;;;;;;;18.68;74.17;98415.29;1725241;82;25784;-60
2022/05/21 06:52:36;;;;;;;3.77;1.65;;;;;;;18.65;72.34;98422.98;1729363;82;26150;-57
2022/05/21 06:55:04;;;;;;;3.22;1.40;;;;;;;18.62;71.02;98420.17;1729056;82;25431;-57
2022/05/21 06:57:30;;;;;;;2.00;0.90;;;;;;;18.72;68.82;98428.42;1729483;83;28134;-57
2022/05/21 06:59:57;;;;;;;5.67;0.98;;;;;;;18.87;65.25;98426.64;1729284;83;25875;-57
2022/05/21 07:02:24;;;;;;;3.67;0.90;;;;;;;18.96;66.81;98429.94;1729308;82;25483;-61
2022/05/21 07:07:35;;;;;;;4.40;1.00;;;;;;;19.20;64.95;98435.43;1669468;84;25669;-58
2022/05/21 07:10:06;;;;;;;1.22;0.70;;;;;;;19.36;65.12;98436.02;1669461;85;27675;-58
2022/05/21 07:12:34;;;;;;;2.00;0.80;;;;;;;19.58;61.80;98430.72;1669617;85;25718;-58
2022/05/21 07:15:02;;;;;;;3.60;1.05;;;;;;;19.71;62.95;98440.18;1669595;85;25634;-57
2022/05/21 07:17:29;;;;;;;3.42;1.00;;;;;;;19.85;61.64;98440.89;1669545;85;25678;-57
2022/05/21 07:19:55;;;;;;;0.93;0.80;;;;;;;20.08;60.14;98442.72;1669381;85;25726;-58
2022/05/21 07:22:22;;;;;;;0.70;0.60;;;;;;;20.14;59.00;98446.75;1669633;85;28077;-58
2022/05/21 07:24:49;;;;;;;1.00;0.62;;;;;;;20.23;57.01;98447.23;1669264;85;25575;-57
2022/05/21 07:27:16;;;;;;;1.98;0.60;;;;;;;20.34;57.17;98444.54;1669209;85;25675;-59
2022/05/21 07:29:44;;;;;;;0.95;0.50;;;;;;;20.28;55.72;98447.47;1669311;85;25958;-58
2022/05/21 07:32:23;;;;;;;3.90;0.85;;;;;;;20.40;57.88;98446.37;1669573;85;25819;-58
2022/05/21 07:35:00;;;;;;;1.10;0.60;;;;;;;20.62;53.20;98440.38;1669761;85;27477;-57
2022/05/21 07:37:27;;;;;;;4.20;0.78;;;;;;;20.67;52.52;98428.86;1669382;85;25564;-58
2022/05/21 07:39:53;;;;;;;1.55;0.53;;;;;;;20.79;53.38;98444.47;1669671;85;25779;-57
2022/05/21 07:42:20;;;;;;;1.95;0.60;;;;;;;20.96;52.49;98452.53;1669141;85;25735;-59
2022/05/21 07:44:47;;;;;;;0.70;0.60;;;;;;;21.11;51.29;98458.39;1695868;83;25693;-59
2022/05/21 07:47:13;;;;;;;1.37;0.50;;;;;;;21.35;50.71;98444.95;1716138;83;28053;-59
2022/05/21 07:49:41;;;;;;;2.05;0.50;;;;;;;21.48;49.32;98469.69;1715832;83;25645;-61
2022/05/21 07:52:08;;;;;;;3.75;0.65;;;;;;;21.61;49.20;98463.95;1716047;83;25500;-61
2022/05/21 07:54:35;;;;;;;0.98;0.60;;;;;;;21.78;47.29;98460.23;1715902;83;25722;-62
2022/05/21 07:57:02;;;;;;;2.55;0.70;;;;;;;21.79;48.93;98468.20;1713926;83;25682;-64
2022/05/21 07:59:30;;;;;;;2.15;0.50;;;;;;;21.94;47.13;98459.88;1713972;83;28634;-58
2022/05/21 08:01:56;;;;;;;3.50;0.62;;;;;;;22.15;48.07;98456.91;1715813;83;25613;-62
2022/05/21 08:04:23;;;;;;;1.90;0.90;;;;;;;22.43;48.63;98460.29;1716287;83;25489;-61
2022/05/21 08:06:49;;;;;;;2.83;0.45;;;;;;;22.64;45.68;98452.33;1681490;83;25728;-63
2022/05/21 08:09:16;;;;;;;4.17;0.95;;;;;;;22.72;46.38;98454.52;1680921;85;25599;-62
2022/05/21 08:11:43;;;;;;;3.25;0.50;;;;;;;22.80;44.56;98456.11;1681105;85;27561;-61
2022/05/21 08:14:10;;;;;;;0.65;0.42;;;;;;;22.88;44.31;98450.69;1681020;84;25513;-60
2022/05/21 08:16:37;;;;;;;0.50;0.50;;;;;;;22.99;44.23;98452.65;1681134;84;25690;-62
2022/05/21 08:19:04;;;;;;;3.60;0.50;;;;;;;23.12;43.64;98460.01;1680876;85;25762;-62
2022/05/21 08:21:32;;;;;;;2.00;0.53;;;;;;;23.23;44.14;98466.34;1681084;85;25702;-60
2022/05/21 08:26:58;;;;;;;0.98;0.50;;;;;;;23.47;42.86;98459.70;1680907;85;25639;-61
2022/05/21 08:29:29;;;;;;;1.20;0.50;;;;;;;23.74;43.55;98470.34;1681173;85;25670;-58
2022/05/21 08:31:56;;;;;;;2.05;0.50;;;;;;;23.88;43.38;98468.06;1681249;83;25734;-58
2022/05/21 08:34:24;;;;;;;1.92;0.50;;;;;;;24.00;42.37;98459.79;1681194;84;25433;-58
2022/05/21 08:36:53;;;;;;;1.72;0.70;;;;;;;24.16;42.40;98462.71;1681396;85;28178;-58
2022/05/21 08:39:21;;;;;;;4.47;0.70;;;;;;;24.13;41.35;98463.50;1680967;85;25433;-58
2022/05/21 08:41:56;;;;;;;0.40;0.40;;;;;;;24.11;40.81;98450.52;1681284;85;25812;-59
2022/05/21 08:44:46;;;;;;;2.67;0.60;;;;;;;24.33;41.88;98444.78;1680183;85;25905;-58
2022/05/21 08:47:32;;;;;;;1.35;0.50;;;;;;;24.53;40.95;98442.98;1681610;84;25713;-59
2022/05/21 08:50:13;;;;;;;1.47;0.50;;;;;;;24.51;39.70;98444.02;1680761;85;26806;-58
2022/05/21 08:53:06;;;;;;;2.15;0.40;;;;;;;24.45;41.72;98452.67;1681256;85;25984;-59
2022/05/21 08:55:38;;;;;;;3.10;0.60;;;;;;;24.75;40.12;98445.58;1681345;85;25606;-59
2022/05/21 08:58:15;;;;;;;2.85;0.45;;;;;;;24.91;40.52;98445.66;1678621;85;25685;-58
2022/05/21 09:00:48;;;;;;;0.70;0.50;;;;;;;24.96;37.97;98439.61;1681315;85;25658;-59
2022/05/21 09:03:20;;;;;;;0.80;0.37;;;;;;;25.22;40.28;98442.11;1681293;85;27418;-58
2022/05/21 09:06:11;;;;;;;2.40;0.50;;;;;;;25.46;39.99;98437.39;1695324;83;25652;-59
2022/05/21 09:09:01;;;;;;;1.47;0.50;;;;;;;25.62;39.02;98444.43;1715717;83;25801;-62
2022/05/21 09:11:41;;;;;;;1.52;0.45;;;;;;;25.59;37.28;98434.83;1715913;83;26265;-59
2022/05/21 09:14:17;;;;;;;;;;;;;;;25.68;37.45;98451.16;1718715;83;25645;-59
2022/05/21 09:16:54;;;;;;;2.37;0.50;;;;;;;25.79;35.97;98449.61;1716067;83;27545;-59
2022/05/21 09:19:38;;;;;;;2.15;0.50;;;;;;;25.91;35.56;98446.19;1716014;83;25693;-60
2022/05/21 09:22:13;;;;;;;1.55;0.50;;;;;;;26.19;36.65;98457.41;1715198;83;25694;-61
2022/05/21 09:24:56;;;;;;;2.62;0.45;;;;;;;26.30;34.67;98454.45;1716259;83;26462;-61
2022/05/21 09:27:31;;;;;;;0.50;0.40;;;;;;;26.53;35.17;98465.51;1715983;83;25413;-60
2022/05/21 09:30:24;;;;;;;0.95;0.50;;;;;;;26.79;34.62;98456.82;1716095;83;28171;-58
2022/05/21 09:32:56;;;;;;;2.65;0.47;;;;;;;26.93;34.58;98450.74;1716031;83;25455;-60
2022/05/21 09:35:32;;;;;;;1.27;0.50;;;;;;;27.06;34.94;98450.30;1716028;83;25450;-60
2022/05/21 09:38:15;;;;;;;2.10;0.47;;;;;;;26.98;33.16;98449.45;1715934;83;25723;-60
2022/05/21 09:40:42;;;;;;;1.37;0.40;;;;;;;27.18;34.13;98446.08;1714722;83;25630;-59
2022/05/21 09:46:27;;;;;;;3.47;0.55;;;;;;;27.71;33.39;98460.69;1716057;83;25635;-62
2022/05/21 09:49:16;;;;;;;2.72;0.50;;;;;;;28.03;33.14;98462.75;1716313;83;25522;-58
2022/05/21 09:51:53;;;;;;;0.70;0.50;;;;;;;28.01;31.99;98464.42;1715800;83;25723;-59
2022/05/21 09:54:23;;;;;;;0.70;0.60;;;;;;;27.89;32.79;98463.09;1715898;83;25493;-57
2022/05/21 09:56:53;;;;;;;3.02;0.47;;;;;;;28.28;33.25;98466.19;1716252;83;27561;-58
2022/05/21 09:59:25;;;;;;;;;;;;;;;28.50;33.08;98463.67;1718720;83;25681;-58
2022/05/21 10:02:01;;;;;;;2.05;0.47;;;;;;;28.62;34.06;98464.17;1716028;83;25398;-58
2022/05/21 10:04:44;;;;;;;9.75;0.53;;;;;;;28.80;33.46;98469.34;1711053;83;26496;-58
2022/05/21 10:10:59;;;;;;;1.75;0.53;;;;;;;28.77;31.70;98468.20;1681090;85;25619;-58
2022/05/21 10:13:34;;;;;;;1.47;0.50;;;;;;;28.92;31.37;98472.83;1680906;85;25538;-60
2022/05/21 10:16:39;;;;;;;0.68;0.50;;;;;;;28.91;32.06;98471.27;1681298;85;25618;-57
2022/05/21 10:19:30;;;;;;;1.85;0.60;;;;;;;29.11;33.19;98471.76;1636511;87;26570;-58
2022/05/21 10:22:52;;;;;;;3.40;0.70;;;;;;;29.35;31.75;98469.27;1636186;87;40661;-58
2022/05/21 10:25:26;;;;;;;2.08;0.50;;;;;;;29.61;32.21;98470.75;1636408;87;27833;-58
2022/05/21 10:28:15;;;;;;;1.60;0.40;;;;;;;29.76;31.04;98473.95;1635931;87;25930;-58
2022/05/21 10:31:05;;;;;;;2.00;0.60;;;;;;;29.29;31.28;98474.06;1635886;87;25637;-58
2022/05/21 10:33:59;;;;;;;0.30;0.30;;;;;;;29.18;32.08;98484.85;1636288;87;25734;-58
2022/05/21 10:36:43;;;;;;;1.35;0.40;;;;;;;29.28;30.36;98478.14;1636299;87;25773;-61
2022/05/21 10:39:54;;;;;;;4.40;0.50;;;;;;;29.16;30.26;98481.70;1636165;87;27536;-58
2022/05/21 10:42:47;;;;;;;1.47;0.60;;;;;;;29.21;31.86;98477.55;1636414;87;25557;-60
2022/05/21 10:45:22;;;;;;;0.60;0.42;;;;;;;29.34;32.04;98475.55;1636424;87;25785;-61
2022/05/21 10:48:43;;;;;;;0.50;0.45;;;;;;;28.93;29.63;98485.69;1634567;87;25945;-59
2022/05/21 10:51:23;;;;;;;0.50;0.40;;;;;;;28.39;30.56;98473.00;1636370;87;25732;-60
2022/05/21 10:54:29;;;;;;;2.42;0.50;;;;;;;28.35;31.21;98475.90;1560090;90;28449;-61
2022/05/21 10:57:25;;;;;;;2.15;0.47;;;;;;;28.27;31.39;98480.11;1593292;89;25542;-62
2022/05/21 11:00:23;;;;;;;0.60;0.50;;;;;;;27.88;31.66;98473.55;1604638;89;25753;-62
2022/05/21 11:03:01;;;;;;;1.00;0.50;;;;;;;27.63;32.69;98478.31;1632751;87;26184;-62
2022/05/21 11:06:21;;;;;;;5.70;0.68;;;;;;;28.08;31.40;98475.52;1629248;87;25833;-61
2022/05/21 11:09:11;;;;;;;1.05;0.53;;;;;;;28.22;31.23;98467.95;1633354;87;26833;-62
2022/05/21 11:12:05;;;;;;;0.70;0.40;;;;;;;28.45;31.18;98472.65;1632688;87;25710;-62
2022/05/21 11:14:43;;;;;;;1.05;0.40;;;;;;;28.77;30.61;98481.50;1632785;87;25518;-59
2022/05/21 11:17:52;;;;;;;2.40;0.40;;;;;;;29.10;29.84;98484.26;1632913;87;26095;-58
2022/05/21 11:20:27;;;;;;;2.47;0.30;;;;;;;29.29;29.59;98469.03;1632247;87;25723;-58
2022/05/21 11:23:10;;;;;;;1.72;0.47;;;;;;;29.38;28.41;98482.48;1632781;87;27437;-59
2022/05/21 11:26:05;;;;;;;2.25;0.50;;;;;;;29.34;28.43;98464.88;1632929;87;25627;-56
2022/05/21 11:28:55;;;;;;;1.47;0.40;;;;;;;29.40;28.63;98468.11;1633022;87;25694;-57
2022/05/21 11:39:37;;;;;;;1.75;0.40;;;;;;;29.27;29.70;98489.23;1561177;91;25783;-57
2022/05/21 11:42:07;;;;;;;;;;;;;;;29.48;29.54;98480.59;1563562;91;25743;-57
2022/05/21 11:44:56;;;;;;;0.62;0.30;;;;;;;29.31;29.90;98490.55;1561335;91;26151;-58
2022/05/21 11:47:28;;;;;;;2.45;0.50;;;;;;;29.35;29.23;98466.45;1561512;91;25780;-57
2022/05/21 11:50:11;;;;;;;1.02;0.50;;;;;;;29.20;29.95;98491.46;1560892;91;29567;-57
2022/05/21 11:52:43;;;;;;;1.85;0.50;;;;;;;29.00;30.39;98489.58;1560496;91;25785;-62
2022/05/21 11:55:30;;;;;;;4.22;0.57;;;;;;;28.75;30.79;98491.81;1561354;91;25816;-59
2022/05/21 11:58:05;;;;;;;1.35;0.40;;;;;;;29.09;29.72;98496.79;1561272;91;25840;-58
2022/05/21 12:00:44;;;;;;;1.10;0.50;;;;;;;29.46;30.06;98494.36;1561199;91;25764;-58
2022/05/21 12:03:16;;;;;;;1.17;0.40;;;;;;;29.49;29.75;98482.97;1561376;91;27579;-58
2022/05/21 12:05:53;;;;;;;2.08;0.55;;;;;;;29.58;29.69;98485.80;1557525;91;25717;-60
2022/05/21 12:08:29;;;;;;;1.05;0.60;;;;;;;29.65;29.73;98483.52;1597518;89;25749;-61
2022/05/21 12:11:04;;;;;;;1.52;0.80;;;;;;;29.65;28.93;98485.58;1597405;89;25952;-59
2022/05/21 12:13:41;;;;;;;0.95;0.60;;;;;;;29.92;28.27;98488.59;1629320;83;25667;-61
2022/05/21 12:16:21;;;;;;;0.60;0.40;;;;;;;30.08;27.33;98478.42;1712876;83;25814;-60
2022/05/21 12:19:00;;;;;;;1.20;0.60;;;;;;;29.86;28.38;98489.77;1713165;83;27249;-60
2022/05/21 12:24:11;;;;;;;0.53;0.47;;;;;;;30.00;28.21;98500.45;1713616;83;25672;-60
2022/05/21 12:26:43;;;;;;;2.02;0.55;;;;;;;29.91;27.21;98493.43;1713419;83;25416;-60
2022/05/21 12:29:25;;;;;;;1.65;0.50;;;;;;;30.14;28.00;98494.98;1713118;83;28588;-63